sensor_id;sensor_type;location;lat;lon;timestamp;P1;durP1;ratioP1;P2;durP2;ratioP2
62463;SDS011;48512;48.552;9.380;2023-01-28T00:01:42;34.22;;;15.43;;
62463;SDS011;48512;48.552;9.380;2023-01-28T00:04:07;31.38;;;15.43;;
62463;SDS011;48512;48.552;9.380;2023-01-28T00:06:33;31.52;;;15.85;;
62463;SDS011;48512;48.552;9.380;2023-01-28T00:08:58;34.95;;;16.30;;
62463;SDS011;48512;48.552;9.380;2023-01-28T00:11:24;34.38;;;16.60;;
62463;SDS011;48512;48.552;9.380;2023-01-28T00:13:52;34.15;;;15.10;;
62463;SDS011;48512;48.552;9.380;2023-01-28T00:16:19;33.25;;;15.13;;
62463;SDS011;48512;48.552;9.380;2023-01-28T00:18:46;34.90;;;16.50;;
62463;SDS011;48512;48.552;9.380;2023-01-28T00:21:13;33.50;;;14.88;;
62463;SDS011;48512;48.552;9.380;2023-01-28T00:23:39;34.08;;;15.85;;
62463;SDS011;48512;48.552;9.380;2023-01-28T00:26:09;33.00;;;14.68;;
62463;SDS011;48512;48.552;9.380;2023-01-28T00:28:36;34.65;;;15.70;;
62463;SDS011;48512;48.552;9.380;2023-01-28T00:31:08;34.03;;;16.00;;
62463;SDS011;48512;48.552;9.380;2023-01-28T00:33:36;33.13;;;14.93;;
62463;SDS011;48512;48.552;9.380;2023-01-28T00:36:02;35.30;;;15.35;;
62463;SDS011;48512;48.552;9.380;2023-01-28T00:38:30;28.80;;;13.20;;
62463;SDS011;48512;48.552;9.380;2023-01-28T00:41:05;31.67;;;14.18;;
62463;SDS011;48512;48.552;9.380;2023-01-28T00:43:36;33.53;;;14.32;;
62463;SDS011;48512;48.552;9.380;2023-01-28T00:46:02;31.50;;;14.27;;
62463;SDS011;48512;48.552;9.380;2023-01-28T00:48:32;29.77;;;14.00;;
62463;SDS011;48512;48.552;9.380;2023-01-28T00:50:57;27.77;;;12.77;;
62463;SDS011;48512;48.552;9.380;2023-01-28T00:53:23;31.70;;;14.23;;
62463;SDS011;48512;48.552;9.380;2023-01-28T00:55:48;26.30;;;11.85;;
62463;SDS011;48512;48.552;9.380;2023-01-28T00:58:14;31.52;;;14.02;;
62463;SDS011;48512;48.552;9.380;2023-01-28T01:00:39;33.00;;;13.95;;
62463;SDS011;48512;48.552;9.380;2023-01-28T01:03:04;29.17;;;13.13;;
62463;SDS011;48512;48.552;9.380;2023-01-28T01:05:30;30.30;;;13.32;;
62463;SDS011;48512;48.552;9.380;2023-01-28T01:07:57;32.13;;;13.65;;
62463;SDS011;48512;48.552;9.380;2023-01-28T01:10:23;31.48;;;13.77;;
62463;SDS011;48512;48.552;9.380;2023-01-28T01:12:48;29.92;;;12.73;;
62463;SDS011;48512;48.552;9.380;2023-01-28T01:15:14;30.30;;;14.18;;
62463;SDS011;48512;48.552;9.380;2023-01-28T01:17:41;29.92;;;13.10;;
62463;SDS011;48512;48.552;9.380;2023-01-28T01:20:10;30.77;;;13.50;;
62463;SDS011;48512;48.552;9.380;2023-01-28T01:22:37;31.33;;;13.88;;
62463;SDS011;48512;48.552;9.380;2023-01-28T01:25:03;32.53;;;14.70;;
62463;SDS011;48512;48.552;9.380;2023-01-28T01:27:30;33.63;;;14.63;;
62463;SDS011;48512;48.552;9.380;2023-01-28T01:29:55;32.22;;;15.23;;
62463;SDS011;48512;48.552;9.380;2023-01-28T01:32:21;29.17;;;13.05;;
62463;SDS011;48512;48.552;9.380;2023-01-28T01:34:47;31.02;;;14.00;;
62463;SDS011;48512;48.552;9.380;2023-01-28T01:37:12;29.42;;;13.70;;
62463;SDS011;48512;48.552;9.380;2023-01-28T01:39:38;32.08;;;14.13;;
62463;SDS011;48512;48.552;9.380;2023-01-28T01:42:03;32.22;;;13.60;;
62463;SDS011;48512;48.552;9.380;2023-01-28T01:47:13;30.50;;;12.95;;
62463;SDS011;48512;48.552;9.380;2023-01-28T01:49:40;28.35;;;12.05;;
62463;SDS011;48512;48.552;9.380;2023-01-28T01:52:08;29.63;;;12.57;;
62463;SDS011;48512;48.552;9.380;2023-01-28T01:54:38;28.52;;;13.30;;
62463;SDS011;48512;48.552;9.380;2023-01-28T01:57:07;27.13;;;12.25;;
62463;SDS011;48512;48.552;9.380;2023-01-28T01:59:35;27.33;;;12.50;;
62463;SDS011;48512;48.552;9.380;2023-01-28T02:02:02;29.13;;;12.77;;
62463;SDS011;48512;48.552;9.380;2023-01-28T02:04:36;32.60;;;13.55;;
62463;SDS011;48512;48.552;9.380;2023-01-28T02:07:03;29.83;;;12.50;;
62463;SDS011;48512;48.552;9.380;2023-01-28T02:09:31;30.42;;;12.07;;
62463;SDS011;48512;48.552;9.380;2023-01-28T02:14:40;26.98;;;11.85;;
62463;SDS011;48512;48.552;9.380;2023-01-28T02:17:09;31.17;;;12.75;;
62463;SDS011;48512;48.552;9.380;2023-01-28T02:20:21;29.23;;;12.43;;
62463;SDS011;48512;48.552;9.380;2023-01-28T02:27:48;24.95;;;11.30;;
62463;SDS011;48512;48.552;9.380;2023-01-28T02:30:21;29.25;;;13.13;;
62463;SDS011;48512;48.552;9.380;2023-01-28T02:32:56;28.92;;;12.65;;
62463;SDS011;48512;48.552;9.380;2023-01-28T02:35:30;26.83;;;11.95;;
62463;SDS011;48512;48.552;9.380;2023-01-28T02:38:13;28.15;;;11.20;;
62463;SDS011;48512;48.552;9.380;2023-01-28T02:40:42;27.27;;;11.65;;
62463;SDS011;48512;48.552;9.380;2023-01-28T02:43:30;28.10;;;12.65;;
62463;SDS011;48512;48.552;9.380;2023-01-28T02:46:16;33.60;;;12.68;;
62463;SDS011;48512;48.552;9.380;2023-01-28T02:49:04;24.83;;;11.43;;
62463;SDS011;48512;48.552;9.380;2023-01-28T02:51:44;24.73;;;11.38;;
62463;SDS011;48512;48.552;9.380;2023-01-28T03:00:07;29.92;;;12.20;;
62463;SDS011;48512;48.552;9.380;2023-01-28T03:05:31;25.73;;;11.25;;
62463;SDS011;48512;48.552;9.380;2023-01-28T03:08:02;26.70;;;11.57;;
62463;SDS011;48512;48.552;9.380;2023-01-28T03:10:49;26.35;;;11.77;;
62463;SDS011;48512;48.552;9.380;2023-01-28T03:13:34;27.73;;;11.73;;
62463;SDS011;48512;48.552;9.380;2023-01-28T03:16:20;28.13;;;11.32;;
62463;SDS011;48512;48.552;9.380;2023-01-28T03:19:04;26.92;;;10.77;;
62463;SDS011;48512;48.552;9.380;2023-01-28T03:21:48;26.90;;;12.00;;
62463;SDS011;48512;48.552;9.380;2023-01-28T03:24:34;24.92;;;11.65;;
62463;SDS011;48512;48.552;9.380;2023-01-28T03:30:33;28.00;;;11.77;;
62463;SDS011;48512;48.552;9.380;2023-01-28T03:33:19;29.70;;;12.73;;
62463;SDS011;48512;48.552;9.380;2023-01-28T03:36:05;24.67;;;10.57;;
62463;SDS011;48512;48.552;9.380;2023-01-28T03:38:50;27.80;;;11.55;;
62463;SDS011;48512;48.552;9.380;2023-01-28T03:41:19;31.25;;;11.63;;
62463;SDS011;48512;48.552;9.380;2023-01-28T03:43:47;27.27;;;11.70;;
62463;SDS011;48512;48.552;9.380;2023-01-28T03:46:12;31.88;;;12.10;;
62463;SDS011;48512;48.552;9.380;2023-01-28T03:48:38;28.13;;;11.43;;
62463;SDS011;48512;48.552;9.380;2023-01-28T03:51:04;28.27;;;11.55;;
62463;SDS011;48512;48.552;9.380;2023-01-28T03:53:29;25.08;;;11.50;;
62463;SDS011;48512;48.552;9.380;2023-01-28T03:55:55;29.33;;;12.40;;
62463;SDS011;48512;48.552;9.380;2023-01-28T03:58:21;28.50;;;12.38;;
62463;SDS011;48512;48.552;9.380;2023-01-28T04:00:51;25.58;;;11.13;;
62463;SDS011;48512;48.552;9.380;2023-01-28T04:03:17;26.40;;;11.60;;
62463;SDS011;48512;48.552;9.380;2023-01-28T04:06:00;27.90;;;11.27;;
62463;SDS011;48512;48.552;9.380;2023-01-28T04:08:27;26.92;;;11.48;;
62463;SDS011;48512;48.552;9.380;2023-01-28T04:10:52;30.95;;;13.57;;
62463;SDS011;48512;48.552;9.380;2023-01-28T04:13:18;26.52;;;10.80;;
62463;SDS011;48512;48.552;9.380;2023-01-28T04:15:44;27.17;;;11.98;;
62463;SDS011;48512;48.552;9.380;2023-01-28T04:18:10;23.63;;;10.98;;
62463;SDS011;48512;48.552;9.380;2023-01-28T04:20:36;27.42;;;11.48;;
62463;SDS011;48512;48.552;9.380;2023-01-28T04:23:01;23.25;;;10.75;;
62463;SDS011;48512;48.552;9.380;2023-01-28T04:25:27;28.73;;;12.60;;
62463;SDS011;48512;48.552;9.380;2023-01-28T04:27:53;27.83;;;11.75;;
62463;SDS011;48512;48.552;9.380;2023-01-28T04:30:18;24.33;;;11.63;;
62463;SDS011;48512;48.552;9.380;2023-01-28T04:32:46;26.48;;;11.32;;
62463;SDS011;48512;48.552;9.380;2023-01-28T04:35:11;23.35;;;10.88;;
62463;SDS011;48512;48.552;9.380;2023-01-28T04:37:37;28.48;;;12.40;;
62463;SDS011;48512;48.552;9.380;2023-01-28T04:40:05;22.25;;;10.82;;
62463;SDS011;48512;48.552;9.380;2023-01-28T04:42:31;27.08;;;11.20;;
62463;SDS011;48512;48.552;9.380;2023-01-28T04:44:56;28.45;;;11.88;;
62463;SDS011;48512;48.552;9.380;2023-01-28T04:47:22;25.95;;;11.27;;
62463;SDS011;48512;48.552;9.380;2023-01-28T04:49:47;24.88;;;11.05;;
62463;SDS011;48512;48.552;9.380;2023-01-28T04:52:13;23.33;;;11.20;;
62463;SDS011;48512;48.552;9.380;2023-01-28T04:54:38;27.77;;;11.52;;
62463;SDS011;48512;48.552;9.380;2023-01-28T04:57:03;28.23;;;12.38;;
62463;SDS011;48512;48.552;9.380;2023-01-28T04:59:28;26.55;;;11.05;;
62463;SDS011;48512;48.552;9.380;2023-01-28T05:01:54;26.58;;;11.43;;
62463;SDS011;48512;48.552;9.380;2023-01-28T05:04:19;24.60;;;11.30;;
62463;SDS011;48512;48.552;9.380;2023-01-28T05:06:45;31.85;;;11.50;;
62463;SDS011;48512;48.552;9.380;2023-01-28T05:09:10;27.13;;;11.80;;
62463;SDS011;48512;48.552;9.380;2023-01-28T05:11:35;26.25;;;11.38;;
62463;SDS011;48512;48.552;9.380;2023-01-28T05:14:01;27.58;;;11.07;;
62463;SDS011;48512;48.552;9.380;2023-01-28T05:16:26;26.50;;;10.82;;
62463;SDS011;48512;48.552;9.380;2023-01-28T05:18:52;23.88;;;10.77;;
62463;SDS011;48512;48.552;9.380;2023-01-28T05:21:17;27.80;;;11.40;;
62463;SDS011;48512;48.552;9.380;2023-01-28T05:23:43;21.90;;;10.15;;
62463;SDS011;48512;48.552;9.380;2023-01-28T05:26:08;23.35;;;11.05;;
62463;SDS011;48512;48.552;9.380;2023-01-28T05:28:34;25.55;;;11.60;;
62463;SDS011;48512;48.552;9.380;2023-01-28T05:31:03;31.23;;;12.32;;
62463;SDS011;48512;48.552;9.380;2023-01-28T05:33:29;30.98;;;11.98;;
62463;SDS011;48512;48.552;9.380;2023-01-28T05:35:55;24.90;;;11.30;;
62463;SDS011;48512;48.552;9.380;2023-01-28T05:38:20;29.48;;;13.13;;
62463;SDS011;48512;48.552;9.380;2023-01-28T05:40:46;27.55;;;12.38;;
62463;SDS011;48512;48.552;9.380;2023-01-28T05:43:11;27.20;;;11.45;;
62463;SDS011;48512;48.552;9.380;2023-01-28T05:45:37;27.90;;;11.88;;
62463;SDS011;48512;48.552;9.380;2023-01-28T05:48:02;25.40;;;11.35;;
62463;SDS011;48512;48.552;9.380;2023-01-28T05:50:28;28.35;;;11.95;;
62463;SDS011;48512;48.552;9.380;2023-01-28T05:52:53;30.05;;;12.98;;
62463;SDS011;48512;48.552;9.380;2023-01-28T05:55:18;29.67;;;13.15;;
62463;SDS011;48512;48.552;9.380;2023-01-28T05:57:44;24.40;;;11.85;;
62463;SDS011;48512;48.552;9.380;2023-01-28T06:00:09;27.70;;;11.43;;
62463;SDS011;48512;48.552;9.380;2023-01-28T06:02:35;27.35;;;11.35;;
62463;SDS011;48512;48.552;9.380;2023-01-28T06:05:01;24.50;;;11.63;;
62463;SDS011;48512;48.552;9.380;2023-01-28T06:07:26;24.60;;;10.65;;
62463;SDS011;48512;48.552;9.380;2023-01-28T06:09:51;25.75;;;11.32;;
62463;SDS011;48512;48.552;9.380;2023-01-28T06:12:17;25.20;;;10.95;;
62463;SDS011;48512;48.552;9.380;2023-01-28T06:14:42;27.42;;;11.25;;
62463;SDS011;48512;48.552;9.380;2023-01-28T06:17:07;28.90;;;12.48;;
62463;SDS011;48512;48.552;9.380;2023-01-28T06:19:33;28.50;;;11.50;;
62463;SDS011;48512;48.552;9.380;2023-01-28T06:21:58;29.75;;;12.32;;
62463;SDS011;48512;48.552;9.380;2023-01-28T06:24:23;26.80;;;12.40;;
62463;SDS011;48512;48.552;9.380;2023-01-28T06:26:49;29.70;;;12.05;;
62463;SDS011;48512;48.552;9.380;2023-01-28T06:29:14;28.05;;;11.75;;
62463;SDS011;48512;48.552;9.380;2023-01-28T06:31:39;28.80;;;11.35;;
62463;SDS011;48512;48.552;9.380;2023-01-28T06:34:05;25.73;;;11.48;;
62463;SDS011;48512;48.552;9.380;2023-01-28T06:36:30;25.58;;;10.98;;
62463;SDS011;48512;48.552;9.380;2023-01-28T06:38:55;25.88;;;11.23;;
62463;SDS011;48512;48.552;9.380;2023-01-28T06:41:21;25.23;;;11.07;;
62463;SDS011;48512;48.552;9.380;2023-01-28T06:43:46;27.63;;;13.05;;
62463;SDS011;48512;48.552;9.380;2023-01-28T06:46:12;27.92;;;13.02;;
62463;SDS011;48512;48.552;9.380;2023-01-28T06:48:37;23.95;;;11.30;;
62463;SDS011;48512;48.552;9.380;2023-01-28T06:51:03;21.67;;;11.07;;
62463;SDS011;48512;48.552;9.380;2023-01-28T06:53:28;24.65;;;12.00;;
62463;SDS011;48512;48.552;9.380;2023-01-28T06:55:54;24.08;;;11.25;;
62463;SDS011;48512;48.552;9.380;2023-01-28T06:58:19;27.13;;;12.07;;
62463;SDS011;48512;48.552;9.380;2023-01-28T07:00:45;41.47;;;16.42;;
62463;SDS011;48512;48.552;9.380;2023-01-28T07:03:10;39.25;;;15.82;;
62463;SDS011;48512;48.552;9.380;2023-01-28T07:05:35;32.47;;;14.32;;
62463;SDS011;48512;48.552;9.380;2023-01-28T07:08:01;37.85;;;16.63;;
62463;SDS011;48512;48.552;9.380;2023-01-28T07:10:27;34.92;;;16.38;;
62463;SDS011;48512;48.552;9.380;2023-01-28T07:12:52;30.90;;;14.48;;
62463;SDS011;48512;48.552;9.380;2023-01-28T07:15:18;31.20;;;13.50;;
62463;SDS011;48512;48.552;9.380;2023-01-28T07:17:43;25.50;;;12.93;;
62463;SDS011;48512;48.552;9.380;2023-01-28T07:20:10;26.67;;;12.30;;
62463;SDS011;48512;48.552;9.380;2023-01-28T07:22:37;28.30;;;12.68;;
62463;SDS011;48512;48.552;9.380;2023-01-28T07:25:05;26.83;;;13.10;;
62463;SDS011;48512;48.552;9.380;2023-01-28T07:27:31;24.52;;;12.55;;
62463;SDS011;48512;48.552;9.380;2023-01-28T07:29:57;25.85;;;11.57;;
62463;SDS011;48512;48.552;9.380;2023-01-28T07:32:22;25.60;;;11.98;;
62463;SDS011;48512;48.552;9.380;2023-01-28T07:34:50;27.83;;;11.55;;
62463;SDS011;48512;48.552;9.380;2023-01-28T07:37:17;25.08;;;11.00;;
62463;SDS011;48512;48.552;9.380;2023-01-28T07:39:42;24.92;;;11.02;;
62463;SDS011;48512;48.552;9.380;2023-01-28T07:42:08;29.55;;;11.88;;
62463;SDS011;48512;48.552;9.380;2023-01-28T07:44:33;26.60;;;11.95;;
62463;SDS011;48512;48.552;9.380;2023-01-28T07:47:00;33.83;;;15.00;;
62463;SDS011;48512;48.552;9.380;2023-01-28T07:49:26;34.88;;;15.45;;
62463;SDS011;48512;48.552;9.380;2023-01-28T07:51:51;29.77;;;15.13;;
62463;SDS011;48512;48.552;9.380;2023-01-28T07:54:17;29.83;;;12.90;;
62463;SDS011;48512;48.552;9.380;2023-01-28T07:56:42;29.75;;;13.43;;
62463;SDS011;48512;48.552;9.380;2023-01-28T07:59:07;26.88;;;12.63;;
62463;SDS011;48512;48.552;9.380;2023-01-28T08:01:33;30.73;;;14.00;;
62463;SDS011;48512;48.552;9.380;2023-01-28T08:03:58;31.17;;;14.27;;
62463;SDS011;48512;48.552;9.380;2023-01-28T08:06:23;29.10;;;13.23;;
62463;SDS011;48512;48.552;9.380;2023-01-28T08:08:49;27.60;;;13.00;;
62463;SDS011;48512;48.552;9.380;2023-01-28T08:11:14;30.48;;;14.55;;
62463;SDS011;48512;48.552;9.380;2023-01-28T08:13:40;26.60;;;14.20;;
62463;SDS011;48512;48.552;9.380;2023-01-28T08:16:05;26.73;;;14.25;;
62463;SDS011;48512;48.552;9.380;2023-01-28T08:18:31;27.50;;;13.65;;
62463;SDS011;48512;48.552;9.380;2023-01-28T08:20:57;30.88;;;13.60;;
62463;SDS011;48512;48.552;9.380;2023-01-28T08:23:23;31.08;;;14.35;;
62463;SDS011;48512;48.552;9.380;2023-01-28T08:25:50;37.88;;;16.15;;
62463;SDS011;48512;48.552;9.380;2023-01-28T08:28:17;36.65;;;15.13;;
62463;SDS011;48512;48.552;9.380;2023-01-28T08:30:42;34.33;;;13.93;;
62463;SDS011;48512;48.552;9.380;2023-01-28T08:33:09;34.33;;;14.88;;
62463;SDS011;48512;48.552;9.380;2023-01-28T08:35:36;33.55;;;14.32;;
62463;SDS011;48512;48.552;9.380;2023-01-28T08:38:02;29.88;;;12.90;;
62463;SDS011;48512;48.552;9.380;2023-01-28T08:40:28;29.38;;;13.68;;
62463;SDS011;48512;48.552;9.380;2023-01-28T08:42:54;30.08;;;13.70;;
62463;SDS011;48512;48.552;9.380;2023-01-28T08:45:21;26.98;;;12.80;;
62463;SDS011;48512;48.552;9.380;2023-01-28T08:47:59;26.45;;;12.43;;
62463;SDS011;48512;48.552;9.380;2023-01-28T08:50:26;23.73;;;11.90;;
62463;SDS011;48512;48.552;9.380;2023-01-28T08:53:04;27.60;;;12.88;;
62463;SDS011;48512;48.552;9.380;2023-01-28T08:55:32;30.02;;;14.20;;
62463;SDS011;48512;48.552;9.380;2023-01-28T08:58:01;29.25;;;12.55;;
62463;SDS011;48512;48.552;9.380;2023-01-28T09:00:27;29.83;;;12.73;;
62463;SDS011;48512;48.552;9.380;2023-01-28T09:02:52;24.92;;;11.65;;
62463;SDS011;48512;48.552;9.380;2023-01-28T09:05:18;27.95;;;13.85;;
62463;SDS011;48512;48.552;9.380;2023-01-28T09:07:44;29.45;;;13.55;;
62463;SDS011;48512;48.552;9.380;2023-01-28T09:10:10;29.38;;;14.05;;
62463;SDS011;48512;48.552;9.380;2023-01-28T09:12:35;29.63;;;13.55;;
62463;SDS011;48512;48.552;9.380;2023-01-28T09:15:01;26.98;;;13.48;;
62463;SDS011;48512;48.552;9.380;2023-01-28T09:17:27;27.60;;;13.25;;
62463;SDS011;48512;48.552;9.380;2023-01-28T09:19:52;27.75;;;14.55;;
62463;SDS011;48512;48.552;9.380;2023-01-28T09:22:17;29.70;;;14.48;;
62463;SDS011;48512;48.552;9.380;2023-01-28T09:24:43;28.73;;;13.93;;
62463;SDS011;48512;48.552;9.380;2023-01-28T09:27:09;27.50;;;13.65;;
62463;SDS011;48512;48.552;9.380;2023-01-28T09:29:34;27.88;;;12.88;;
62463;SDS011;48512;48.552;9.380;2023-01-28T09:32:01;27.63;;;12.23;;
62463;SDS011;48512;48.552;9.380;2023-01-28T09:34:26;24.55;;;11.80;;
62463;SDS011;48512;48.552;9.380;2023-01-28T09:36:52;24.92;;;11.73;;
62463;SDS011;48512;48.552;9.380;2023-01-28T09:39:17;28.17;;;12.35;;
62463;SDS011;48512;48.552;9.380;2023-01-28T09:42:03;26.85;;;12.65;;
62463;SDS011;48512;48.552;9.380;2023-01-28T09:45:00;24.60;;;11.80;;
62463;SDS011;48512;48.552;9.380;2023-01-28T09:47:37;26.13;;;11.82;;
62463;SDS011;48512;48.552;9.380;2023-01-28T09:51:06;27.00;;;11.85;;
62463;SDS011;48512;48.552;9.380;2023-01-28T09:53:14;30.23;;;13.93;;
62463;SDS011;48512;48.552;9.380;2023-01-28T09:55:46;29.70;;;13.13;;
62463;SDS011;48512;48.552;9.380;2023-01-28T09:58:17;29.27;;;13.15;;
62463;SDS011;48512;48.552;9.380;2023-01-28T10:00:59;29.20;;;12.93;;
62463;SDS011;48512;48.552;9.380;2023-01-28T10:03:56;29.48;;;12.30;;
62463;SDS011;48512;48.552;9.380;2023-01-28T10:19:50;27.27;;;13.43;;
62463;SDS011;48512;48.552;9.380;2023-01-28T10:22:20;27.35;;;13.27;;
62463;SDS011;48512;48.552;9.380;2023-01-28T10:24:52;31.42;;;13.10;;
62463;SDS011;48512;48.552;9.380;2023-01-28T10:27:22;26.63;;;12.32;;
62463;SDS011;48512;48.552;9.380;2023-01-28T10:29:52;27.80;;;12.23;;
62463;SDS011;48512;48.552;9.380;2023-01-28T10:32:31;28.27;;;12.73;;
62463;SDS011;48512;48.552;9.380;2023-01-28T10:35:00;28.17;;;13.07;;
62463;SDS011;48512;48.552;9.380;2023-01-28T10:37:28;36.40;;;15.73;;
62463;SDS011;48512;48.552;9.380;2023-01-28T10:40:01;29.60;;;13.38;;
62463;SDS011;48512;48.552;9.380;2023-01-28T10:44:59;25.05;;;12.18;;
62463;SDS011;48512;48.552;9.380;2023-01-28T10:47:36;32.38;;;14.90;;
62463;SDS011;48512;48.552;9.380;2023-01-28T10:50:05;32.30;;;14.52;;
62463;SDS011;48512;48.552;9.380;2023-01-28T10:52:39;32.05;;;15.10;;
62463;SDS011;48512;48.552;9.380;2023-01-28T10:55:14;26.58;;;13.00;;
62463;SDS011;48512;48.552;9.380;2023-01-28T10:57:40;24.27;;;12.68;;
62463;SDS011;48512;48.552;9.380;2023-01-28T11:00:22;24.35;;;13.15;;
62463;SDS011;48512;48.552;9.380;2023-01-28T11:02:50;23.50;;;12.73;;
62463;SDS011;48512;48.552;9.380;2023-01-28T11:05:49;23.63;;;12.20;;
62463;SDS011;48512;48.552;9.380;2023-01-28T11:08:15;23.27;;;11.18;;
62463;SDS011;48512;48.552;9.380;2023-01-28T11:10:41;27.40;;;12.50;;
62463;SDS011;48512;48.552;9.380;2023-01-28T11:13:21;29.95;;;13.77;;
62463;SDS011;48512;48.552;9.380;2023-01-28T11:19:01;26.48;;;13.18;;
62463;SDS011;48512;48.552;9.380;2023-01-28T11:21:25;26.00;;;13.00;;
62463;SDS011;48512;48.552;9.380;2023-01-28T11:26:36;24.83;;;12.43;;
62463;SDS011;48512;48.552;9.380;2023-01-28T11:29:17;21.75;;;10.60;;
62463;SDS011;48512;48.552;9.380;2023-01-28T11:31:47;25.50;;;11.82;;
62463;SDS011;48512;48.552;9.380;2023-01-28T11:34:15;26.38;;;12.30;;
62463;SDS011;48512;48.552;9.380;2023-01-28T11:36:48;25.80;;;12.23;;
62463;SDS011;48512;48.552;9.380;2023-01-28T11:39:20;22.20;;;10.63;;
62463;SDS011;48512;48.552;9.380;2023-01-28T11:41:52;21.27;;;11.23;;
62463;SDS011;48512;48.552;9.380;2023-01-28T11:44:19;22.25;;;11.07;;
62463;SDS011;48512;48.552;9.380;2023-01-28T11:57:41;23.95;;;11.40;;
62463;SDS011;48512;48.552;9.380;2023-01-28T12:08:21;24.50;;;11.77;;
62463;SDS011;48512;48.552;9.380;2023-01-28T12:14:09;26.25;;;12.48;;
62463;SDS011;48512;48.552;9.380;2023-01-28T12:20:06;24.48;;;11.85;;
62463;SDS011;48512;48.552;9.380;2023-01-28T12:31:52;33.15;;;13.60;;
62463;SDS011;48512;48.552;9.380;2023-01-28T12:40:49;30.38;;;14.57;;
62463;SDS011;48512;48.552;9.380;2023-01-28T12:42:52;31.48;;;13.60;;
62463;SDS011;48512;48.552;9.380;2023-01-28T12:45:26;38.38;;;16.77;;
62463;SDS011;48512;48.552;9.380;2023-01-28T12:47:59;36.08;;;14.23;;
62463;SDS011;48512;48.552;9.380;2023-01-28T12:50:35;31.48;;;14.75;;
62463;SDS011;48512;48.552;9.380;2023-01-28T12:53:25;31.15;;;15.30;;
62463;SDS011;48512;48.552;9.380;2023-01-28T12:56:04;34.22;;;15.32;;
62463;SDS011;48512;48.552;9.380;2023-01-28T12:58:42;38.00;;;15.55;;
62463;SDS011;48512;48.552;9.380;2023-01-28T13:01:23;32.50;;;14.48;;
62463;SDS011;48512;48.552;9.380;2023-01-28T13:06:40;27.98;;;12.98;;
62463;SDS011;48512;48.552;9.380;2023-01-28T13:09:12;34.50;;;15.23;;
62463;SDS011;48512;48.552;9.380;2023-01-28T13:11:41;35.33;;;15.18;;
62463;SDS011;48512;48.552;9.380;2023-01-28T13:14:08;29.75;;;13.25;;
62463;SDS011;48512;48.552;9.380;2023-01-28T13:16:36;33.37;;;13.53;;
62463;SDS011;48512;48.552;9.380;2023-01-28T13:19:06;34.10;;;16.20;;
62463;SDS011;48512;48.552;9.380;2023-01-28T13:21:44;33.55;;;14.93;;
62463;SDS011;48512;48.552;9.380;2023-01-28T13:31:50;34.35;;;16.98;;
62463;SDS011;48512;48.552;9.380;2023-01-28T13:34:37;28.40;;;13.95;;
62463;SDS011;48512;48.552;9.380;2023-01-28T13:37:18;34.60;;;15.50;;
62463;SDS011;48512;48.552;9.380;2023-01-28T13:39:51;48.80;;;20.77;;
62463;SDS011;48512;48.552;9.380;2023-01-28T13:42:25;44.30;;;20.13;;
62463;SDS011;48512;48.552;9.380;2023-01-28T13:44:52;31.45;;;15.10;;
62463;SDS011;48512;48.552;9.380;2023-01-28T13:47:33;31.02;;;13.43;;
62463;SDS011;48512;48.552;9.380;2023-01-28T13:50:06;27.58;;;12.82;;
62463;SDS011;48512;48.552;9.380;2023-01-28T13:55:22;29.60;;;13.90;;
62463;SDS011;48512;48.552;9.380;2023-01-28T14:12:04;26.98;;;11.68;;
62463;SDS011;48512;48.552;9.380;2023-01-28T14:14:56;27.35;;;12.18;;
62463;SDS011;48512;48.552;9.380;2023-01-28T14:17:43;28.85;;;13.77;;
62463;SDS011;48512;48.552;9.380;2023-01-28T14:20:14;26.13;;;12.85;;
62463;SDS011;48512;48.552;9.380;2023-01-28T14:22:44;27.90;;;13.32;;
62463;SDS011;48512;48.552;9.380;2023-01-28T14:25:14;27.85;;;12.18;;
62463;SDS011;48512;48.552;9.380;2023-01-28T14:27:49;28.77;;;13.15;;
62463;SDS011;48512;48.552;9.380;2023-01-28T14:32:58;28.20;;;13.52;;
62463;SDS011;48512;48.552;9.380;2023-01-28T14:35:26;28.45;;;12.48;;
62463;SDS011;48512;48.552;9.380;2023-01-28T14:37:54;32.80;;;12.98;;
62463;SDS011;48512;48.552;9.380;2023-01-28T14:40:20;35.03;;;13.10;;
62463;SDS011;48512;48.552;9.380;2023-01-28T14:42:47;27.52;;;12.10;;
62463;SDS011;48512;48.552;9.380;2023-01-28T14:45:28;27.25;;;12.25;;
62463;SDS011;48512;48.552;9.380;2023-01-28T14:53:35;30.48;;;14.05;;
62463;SDS011;48512;48.552;9.380;2023-01-28T14:59:00;27.85;;;13.48;;
62463;SDS011;48512;48.552;9.380;2023-01-28T15:01:29;29.02;;;12.55;;
62463;SDS011;48512;48.552;9.380;2023-01-28T15:03:55;25.23;;;12.75;;
62463;SDS011;48512;48.552;9.380;2023-01-28T15:06:28;28.45;;;12.95;;
62463;SDS011;48512;48.552;9.380;2023-01-28T15:09:04;27.02;;;12.63;;
62463;SDS011;48512;48.552;9.380;2023-01-28T15:11:36;25.55;;;11.23;;
62463;SDS011;48512;48.552;9.380;2023-01-28T15:14:07;26.17;;;12.02;;
62463;SDS011;48512;48.552;9.380;2023-01-28T15:16:40;24.08;;;11.45;;
62463;SDS011;48512;48.552;9.380;2023-01-28T15:19:05;22.38;;;10.70;;
62463;SDS011;48512;48.552;9.380;2023-01-28T15:21:32;22.85;;;10.32;;
62463;SDS011;48512;48.552;9.380;2023-01-28T15:24:00;24.30;;;10.20;;
62463;SDS011;48512;48.552;9.380;2023-01-28T15:26:28;22.50;;;10.32;;
62463;SDS011;48512;48.552;9.380;2023-01-28T15:28:57;21.08;;;9.68;;
62463;SDS011;48512;48.552;9.380;2023-01-28T15:33:55;18.73;;;9.50;;
62463;SDS011;48512;48.552;9.380;2023-01-28T15:36:22;17.85;;;9.15;;
62463;SDS011;48512;48.552;9.380;2023-01-28T15:38:47;19.48;;;9.50;;
62463;SDS011;48512;48.552;9.380;2023-01-28T15:41:13;23.08;;;11.00;;
62463;SDS011;48512;48.552;9.380;2023-01-28T15:43:44;20.30;;;10.48;;
62463;SDS011;48512;48.552;9.380;2023-01-28T15:46:12;20.33;;;10.10;;
62463;SDS011;48512;48.552;9.380;2023-01-28T15:48:39;19.27;;;10.18;;
62463;SDS011;48512;48.552;9.380;2023-01-28T15:51:13;21.83;;;9.32;;
62463;SDS011;48512;48.552;9.380;2023-01-28T15:53:48;20.45;;;10.15;;
62463;SDS011;48512;48.552;9.380;2023-01-28T15:56:15;18.77;;;10.10;;
62463;SDS011;48512;48.552;9.380;2023-01-28T15:58:50;18.73;;;9.73;;
62463;SDS011;48512;48.552;9.380;2023-01-28T16:01:17;20.15;;;8.43;;
62463;SDS011;48512;48.552;9.380;2023-01-28T16:03:44;18.67;;;8.77;;
62463;SDS011;48512;48.552;9.380;2023-01-28T16:11:11;20.98;;;10.93;;
62463;SDS011;48512;48.552;9.380;2023-01-28T16:13:44;21.05;;;10.90;;
62463;SDS011;48512;48.552;9.380;2023-01-28T16:16:09;25.67;;;12.18;;
62463;SDS011;48512;48.552;9.380;2023-01-28T16:18:45;25.70;;;12.38;;
62463;SDS011;48512;48.552;9.380;2023-01-28T16:21:18;25.45;;;13.73;;
62463;SDS011;48512;48.552;9.380;2023-01-28T16:23:52;21.65;;;10.95;;
62463;SDS011;48512;48.552;9.380;2023-01-28T16:26:26;18.75;;;10.05;;
62463;SDS011;48512;48.552;9.380;2023-01-28T16:28:53;19.45;;;10.40;;
62463;SDS011;48512;48.552;9.380;2023-01-28T16:31:19;20.88;;;11.18;;
62463;SDS011;48512;48.552;9.380;2023-01-28T16:33:45;23.85;;;11.60;;
62463;SDS011;48512;48.552;9.380;2023-01-28T16:36:11;23.60;;;11.85;;
62463;SDS011;48512;48.552;9.380;2023-01-28T16:38:38;19.55;;;11.00;;
62463;SDS011;48512;48.552;9.380;2023-01-28T16:41:04;20.20;;;10.20;;
62463;SDS011;48512;48.552;9.380;2023-01-28T16:43:36;21.45;;;10.65;;
62463;SDS011;48512;48.552;9.380;2023-01-28T16:46:01;20.80;;;9.82;;